Time;durP1;ratioP1;P1;durP2;ratioP2;P2;SDS_P1;SDS_P2;PMS_P1;PMS_P2;Temp;Humidity;BMP_temperature;BMP_pressure;BME280_temperature;BME280_humidity;BME280_pressure;Samples;Min_cycle;Max_cycle;Signal;HPM_P1;HPM_P2
2023/12/18 00:00:05;;;;;;;11.53;8.77;;;;;;;;;;5009300;28;20218;-29
2023/12/18 00:02:32;;;;;;;13.60;10.33;;;;;;;;;;5002784;28;20204;-27
2023/12/18 00:04:59;;;;;;;14.67;10.03;;;;;;;;;;5010679;28;20227;-28
2023/12/18 00:07:28;;;;;;;15.10;9.47;;;;;;;;;;4999981;28;20287;-29
2023/12/18 00:09:55;;;;;;;16.43;10.43;;;;;;;;;;5016489;28;20234;-29
2023/12/18 00:12:22;;;;;;;14.57;8.87;;;;;;;;;;5004432;28;20202;-27
2023/12/18 00:14:49;;;;;;;14.20;8.50;;;;;;;;;;5010849;28;20227;-29
2023/12/18 00:17:16;;;;;;;14.13;9.10;;;;;;;;;;5022728;28;20234;-28
2023/12/18 00:19:43;;;;;;;14.77;10.20;;;;;;;;;;5018408;28;20218;-28
2023/12/18 00:22:11;;;;;;;15.70;10.20;;;;;;;;;;5002353;28;20219;-28
2023/12/18 00:24:39;;;;;;;17.30;10.67;;;;;;;;;;5013092;28;20227;-29
2023/12/18 00:27:06;;;;;;;16.77;10.70;;;;;;;;;;5029567;28;20198;-29
2023/12/18 00:29:33;;;;;;;17.33;10.97;;;;;;;;;;5020532;28;20233;-28
2023/12/18 00:32:01;;;;;;;14.93;10.07;;;;;;;;;;5008069;28;20224;-28
2023/12/18 00:34:28;;;;;;;13.70;9.63;;;;;;;;;;5019970;28;20226;-26
2023/12/18 00:36:55;;;;;;;16.77;10.37;;;;;;;;;;5005280;28;20233;-27
2023/12/18 00:39:22;;;;;;;13.47;9.43;;;;;;;;;;5019823;28;20685;-32
2023/12/18 00:41:51;;;;;;;14.83;9.60;;;;;;;;;;5011717;28;20211;-27
2023/12/18 00:44:18;;;;;;;14.80;9.03;;;;;;;;;;5005015;28;20219;-28
2023/12/18 00:46:45;;;;;;;17.07;10.13;;;;;;;;;;5005163;28;20313;-26
2023/12/18 00:49:12;;;;;;;16.77;9.73;;;;;;;;;;5021706;28;20214;-27
2023/12/18 00:51:39;;;;;;;17.90;10.30;;;;;;;;;;5010258;28;20546;-27
2023/12/18 00:54:07;;;;;;;16.13;10.10;;;;;;;;;;5011864;28;20223;-27
2023/12/18 00:56:36;;;;;;;16.37;10.80;;;;;;;;;;5026382;28;20231;-27
2023/12/18 00:59:04;;;;;;;14.07;10.53;;;;;;;;;;5009475;28;20208;-28
2023/12/18 01:01:31;;;;;;;15.27;9.00;;;;;;;;;;4997170;28;20225;-26
2023/12/18 01:03:59;;;;;;;16.50;9.67;;;;;;;;;;5019056;28;20221;-29
2023/12/18 01:06:26;;;;;;;13.60;8.93;;;;;;;;;;5002857;28;20206;-26
2023/12/18 01:08:53;;;;;;;14.30;9.20;;;;;;;;;;5020399;28;20313;-28
2023/12/18 01:11:20;;;;;;;15.10;10.23;;;;;;;;;;5022227;28;20218;-28
2023/12/18 01:13:47;;;;;;;15.37;10.37;;;;;;;;;;5024322;28;20207;-29
2023/12/18 01:16:15;;;;;;;13.20;8.87;;;;;;;;;;4998254;28;20227;-26
2023/12/18 01:18:43;;;;;;;12.60;8.63;;;;;;;;;;5010950;28;20234;-28
2023/12/18 01:21:10;;;;;;;13.50;9.10;;;;;;;;;;5004268;28;20378;-28
2023/12/18 01:23:37;;;;;;;14.53;9.03;;;;;;;;;;5015426;28;20199;-29
2023/12/18 01:26:04;;;;;;;13.03;10.20;;;;;;;;;;5018617;28;20199;-27
2023/12/18 01:28:31;;;;;;;14.33;9.67;;;;;;;;;;5019564;28;20211;-26
2023/12/18 01:30:58;;;;;;;15.17;9.60;;;;;;;;;;5003599;28;20207;-27
2023/12/18 01:33:27;;;;;;;14.60;9.63;;;;;;;;;;5021604;28;20264;-26
2023/12/18 01:35:54;;;;;;;14.20;8.80;;;;;;;;;;5017700;28;20235;-27
2023/12/18 01:38:21;;;;;;;16.87;8.97;;;;;;;;;;5018590;28;20207;-27
2023/12/18 01:40:48;;;;;;;12.07;8.33;;;;;;;;;;5017030;28;20203;-26
2023/12/18 01:43:24;;;;;;;16.00;10.37;;;;;;;;;;5010743;28;20330;-27
2023/12/18 01:45:55;;;;;;;14.70;9.53;;;;;;;;;;5009159;28;20235;-28
2023/12/18 01:48:22;;;;;;;14.57;9.50;;;;;;;;;;5016327;28;20941;-26
2023/12/18 01:50:51;;;;;;;14.77;9.70;;;;;;;;;;5008368;28;20210;-26
2023/12/18 01:53:18;;;;;;;12.37;9.27;;;;;;;;;;5009139;28;20203;-26
2023/12/18 01:55:46;;;;;;;15.57;9.30;;;;;;;;;;5024385;28;21021;-28
2023/12/18 01:58:14;;;;;;;13.63;8.47;;;;;;;;;;5028232;28;20213;-30
2023/12/18 02:00:41;;;;;;;12.60;8.93;;;;;;;;;;5000719;28;20211;-26
2023/12/18 02:03:09;;;;;;;14.07;8.13;;;;;;;;;;5008834;28;20222;-29
2023/12/18 02:05:37;;;;;;;11.07;8.33;;;;;;;;;;5008869;28;20663;-29
2023/12/18 02:08:06;;;;;;;10.93;8.60;;;;;;;;;;5004538;28;20207;-26
2023/12/18 02:10:34;;;;;;;13.63;9.37;;;;;;;;;;5003568;28;20202;-26
2023/12/18 02:13:01;;;;;;;11.27;7.50;;;;;;;;;;5012125;28;20417;-27
2023/12/18 02:15:28;;;;;;;13.30;8.47;;;;;;;;;;5012937;28;20226;-27
2023/12/18 02:17:55;;;;;;;12.53;8.67;;;;;;;;;;5011661;28;20685;-27
2023/12/18 02:20:22;;;;;;;12.47;8.70;;;;;;;;;;4990535;28;20212;-29
2023/12/18 02:22:54;;;;;;;11.87;8.43;;;;;;;;;;5012109;28;20473;-28
2023/12/18 02:25:21;;;;;;;12.83;8.80;;;;;;;;;;5010981;28;20338;-28
2023/12/18 02:27:49;;;;;;;13.77;8.87;;;;;;;;;;5018881;28;20204;-28
2023/12/18 02:30:16;;;;;;;11.43;7.83;;;;;;;;;;4998165;28;20212;-26
2023/12/18 02:32:44;;;;;;;12.50;8.57;;;;;;;;;;5004150;28;20211;-26
2023/12/18 02:35:11;;;;;;;11.90;8.57;;;;;;;;;;5010035;28;20235;-27
2023/12/18 02:37:38;;;;;;;14.03;8.57;;;;;;;;;;5003925;28;20560;-28
2023/12/18 02:40:08;;;;;;;13.73;8.23;;;;;;;;;;5018002;28;20290;-26
2023/12/18 02:42:35;;;;;;;11.70;8.60;;;;;;;;;;5009868;28;20569;-27
2023/12/18 02:45:03;;;;;;;12.27;8.70;;;;;;;;;;5015562;28;20223;-28
2023/12/18 02:47:30;;;;;;;14.63;9.93;;;;;;;;;;5012198;28;20199;-27
2023/12/18 02:49:57;;;;;;;10.53;7.53;;;;;;;;;;5010642;28;20235;-27
2023/12/18 02:52:24;;;;;;;10.23;7.57;;;;;;;;;;5009342;28;20219;-28
2023/12/18 02:54:51;;;;;;;11.37;8.17;;;;;;;;;;5016158;28;20230;-29
2023/12/18 02:57:20;;;;;;;13.90;8.77;;;;;;;;;;5025632;28;20234;-26
2023/12/18 02:59:47;;;;;;;11.43;8.30;;;;;;;;;;5006429;28;20215;-27
2023/12/18 03:02:14;;;;;;;11.43;8.83;;;;;;;;;;5005965;28;20215;-27
2023/12/18 03:04:41;;;;;;;11.70;7.60;;;;;;;;;;5025484;28;20227;-29
2023/12/18 03:07:09;;;;;;;11.50;7.90;;;;;;;;;;5004873;28;20211;-32
2023/12/18 03:09:38;;;;;;;12.27;8.73;;;;;;;;;;5019535;28;20563;-28
2023/12/18 03:12:05;;;;;;;12.43;8.70;;;;;;;;;;5017631;28;20199;-26
2023/12/18 03:14:34;;;;;;;11.40;7.93;;;;;;;;;;5013631;28;20235;-28
2023/12/18 03:17:01;;;;;;;11.17;7.67;;;;;;;;;;5002360;28;20230;-27
2023/12/18 03:19:28;;;;;;;14.40;8.87;;;;;;;;;;5018369;28;20207;-26
2023/12/18 03:21:56;;;;;;;12.13;7.93;;;;;;;;;;4998496;28;20358;-27
2023/12/18 03:24:23;;;;;;;12.10;8.80;;;;;;;;;;5006954;28;20234;-26
2023/12/18 03:26:50;;;;;;;10.57;7.77;;;;;;;;;;5009538;28;20235;-28
2023/12/18 03:29:17;;;;;;;12.83;7.37;;;;;;;;;;5004094;28;20298;-27
2023/12/18 03:31:46;;;;;;;13.40;8.43;;;;;;;;;;5011543;28;20550;-25
2023/12/18 03:34:13;;;;;;;10.17;7.90;;;;;;;;;;5008886;28;20322;-28
2023/12/18 03:36:40;;;;;;;11.13;7.90;;;;;;;;;;5002278;28;20219;-27
2023/12/18 03:39:07;;;;;;;11.40;8.27;;;;;;;;;;5007517;28;20211;-27
2023/12/18 03:41:34;;;;;;;14.60;8.87;;;;;;;;;;5010619;28;20200;-27
2023/12/18 03:44:01;;;;;;;11.47;8.03;;;;;;;;;;5005000;28;20780;-26
2023/12/18 03:46:29;;;;;;;11.40;7.83;;;;;;;;;;5003664;28;20213;-28
2023/12/18 03:48:57;;;;;;;11.53;7.93;;;;;;;;;;5016814;28;20290;-27
2023/12/18 03:51:24;;;;;;;10.97;7.77;;;;;;;;;;5000301;28;20216;-28
2023/12/18 03:53:51;;;;;;;12.53;8.87;;;;;;;;;;5015943;28;20203;-28
2023/12/18 03:56:18;;;;;;;9.43;7.40;;;;;;;;;;5023496;28;20591;-28
2023/12/18 03:58:45;;;;;;;11.00;8.43;;;;;;;;;;4998777;28;20212;-28
2023/12/18 04:01:12;;;;;;;9.70;7.30;;;;;;;;;;5004698;28;20211;-27
2023/12/18 04:03:39;;;;;;;10.67;7.40;;;;;;;;;;5008152;28;20206;-26
2023/12/18 04:06:09;;;;;;;11.87;8.00;;;;;;;;;;5002511;28;20207;-26
2023/12/18 04:08:36;;;;;;;8.47;7.43;;;;;;;;;;5008397;28;20206;-28
2023/12/18 04:11:04;;;;;;;10.60;7.13;;;;;;;;;;5015317;28;20214;-28
2023/12/18 04:13:31;;;;;;;12.13;8.20;;;;;;;;;;5008260;28;20204;-28
2023/12/18 04:15:58;;;;;;;11.63;7.87;;;;;;;;;;5014044;28;20206;-26
2023/12/18 04:18:25;;;;;;;14.93;8.73;;;;;;;;;;5010308;28;20234;-30
2023/12/18 04:20:52;;;;;;;11.37;8.37;;;;;;;;;;5008034;28;20554;-29
2023/12/18 04:23:20;;;;;;;15.67;8.60;;;;;;;;;;5019805;28;20656;-26
2023/12/18 04:25:47;;;;;;;10.70;7.83;;;;;;;;;;5012704;28;20309;-29
2023/12/18 04:28:14;;;;;;;11.30;7.87;;;;;;;;;;5006946;28;20207;-29
2023/12/18 04:30:41;;;;;;;12.73;8.07;;;;;;;;;;5004054;28;20214;-28
2023/12/18 04:33:08;;;;;;;14.27;7.80;;;;;;;;;;5015719;28;20657;-30
2023/12/18 04:35:36;;;;;;;10.20;7.17;;;;;;;;;;5011327;28;20232;-28
2023/12/18 04:38:03;;;;;;;12.93;7.93;;;;;;;;;;5018518;28;20227;-26
2023/12/18 04:40:31;;;;;;;9.40;7.20;;;;;;;;;;5017592;28;20218;-28
2023/12/18 04:42:58;;;;;;;12.47;8.37;;;;;;;;;;5008569;28;20211;-26
2023/12/18 04:45:25;;;;;;;9.43;7.47;;;;;;;;;;5006236;28;20235;-27
2023/12/18 04:47:52;;;;;;;12.53;7.67;;;;;;;;;;5007901;28;20204;-28
2023/12/18 04:50:19;;;;;;;14.37;8.40;;;;;;;;;;5001277;28;20586;-28
2023/12/18 04:52:46;;;;;;;14.13;9.33;;;;;;;;;;5006077;28;20213;-26
2023/12/18 04:55:13;;;;;;;13.40;7.00;;;;;;;;;;5019805;28;20246;-28
2023/12/18 04:57:42;;;;;;;11.90;8.10;;;;;;;;;;5018754;28;20229;-27
2023/12/18 05:00:09;;;;;;;9.83;7.17;;;;;;;;;;5006277;28;20211;-28
2023/12/18 05:02:37;;;;;;;8.33;7.10;;;;;;;;;;5017743;28;20211;-28
2023/12/18 05:05:04;;;;;;;12.53;7.20;;;;;;;;;;5018085;28;20276;-28
2023/12/18 05:07:31;;;;;;;8.80;6.53;;;;;;;;;;5004139;28;20204;-26
2023/12/18 05:09:58;;;;;;;10.70;7.83;;;;;;;;;;5031040;28;20202;-28
2023/12/18 05:12:26;;;;;;;11.27;7.67;;;;;;;;;;5012870;28;20219;-26
2023/12/18 05:14:54;;;;;;;8.43;6.23;;;;;;;;;;5004824;28;20227;-27
2023/12/18 05:17:21;;;;;;;10.20;7.33;;;;;;;;;;5017847;28;20224;-26
2023/12/18 05:19:48;;;;;;;10.63;7.50;;;;;;;;;;5001071;28;20199;-28
2023/12/18 05:22:15;;;;;;;13.07;8.87;;;;;;;;;;5007735;28;20310;-27
2023/12/18 05:24:42;;;;;;;11.00;7.03;;;;;;;;;;5011471;28;20733;-29
2023/12/18 05:27:09;;;;;;;13.23;7.33;;;;;;;;;;5010592;28;20212;-26
2023/12/18 05:29:36;;;;;;;11.57;7.47;;;;;;;;;;5007196;28;20211;-27
2023/12/18 05:32:05;;;;;;;10.00;7.87;;;;;;;;;;5005134;28;20223;-27
2023/12/18 05:34:32;;;;;;;8.57;6.80;;;;;;;;;;5013866;28;20227;-28
2023/12/18 05:37:01;;;;;;;10.37;7.60;;;;;;;;;;5001763;28;20207;-26
2023/12/18 05:39:28;;;;;;;9.70;6.97;;;;;;;;;;5010285;28;20290;-27
2023/12/18 05:41:55;;;;;;;10.90;7.53;;;;;;;;;;5022529;28;20249;-27
2023/12/18 05:44:22;;;;;;;10.87;6.97;;;;;;;;;;4998491;28;20228;-28
2023/12/18 05:46:50;;;;;;;10.40;8.33;;;;;;;;;;5013969;28;20203;-31
2023/12/18 05:49:18;;;;;;;11.47;8.40;;;;;;;;;;5025440;28;20225;-26
2023/12/18 05:51:46;;;;;;;12.37;7.50;;;;;;;;;;4996806;28;20210;-28
2023/12/18 05:54:13;;;;;;;11.30;7.40;;;;;;;;;;5013996;28;20231;-28
2023/12/18 05:56:40;;;;;;;16.20;7.30;;;;;;;;;;5010227;28;20211;-28
2023/12/18 05:59:07;;;;;;;13.47;7.40;;;;;;;;;;5006197;28;20227;-27
2023/12/18 06:01:34;;;;;;;8.80;6.30;;;;;;;;;;4999025;28;20216;-26
2023/12/18 06:04:01;;;;;;;8.80;6.90;;;;;;;;;;5011591;28;20729;-31
2023/12/18 06:06:29;;;;;;;9.73;7.10;;;;;;;;;;5004243;28;20590;-28
2023/12/18 06:08:56;;;;;;;11.97;7.23;;;;;;;;;;5009820;28;20222;-27
2023/12/18 06:11:23;;;;;;;10.00;7.77;;;;;;;;;;5017631;28;20689;-26
2023/12/18 06:13:51;;;;;;;10.40;7.37;;;;;;;;;;5010140;28;20573;-27
2023/12/18 06:16:18;;;;;;;11.53;7.20;;;;;;;;;;5004444;28;20207;-28
2023/12/18 06:18:45;;;;;;;8.57;6.73;;;;;;;;;;5016842;28;20239;-27
2023/12/18 06:21:12;;;;;;;9.87;7.20;;;;;;;;;;5002215;28;20211;-27
2023/12/18 06:23:40;;;;;;;9.33;7.03;;;;;;;;;;5007939;28;20689;-27
2023/12/18 06:26:07;;;;;;;10.13;7.33;;;;;;;;;;5023655;28;20673;-27
2023/12/18 06:28:34;;;;;;;9.13;6.90;;;;;;;;;;5010098;28;20215;-27
2023/12/18 06:31:01;;;;;;;10.37;7.40;;;;;;;;;;5013831;28;20202;-27
2023/12/18 06:33:28;;;;;;;10.93;7.07;;;;;;;;;;5007955;28;20215;-29
2023/12/18 06:35:55;;;;;;;9.53;7.07;;;;;;;;;;5008341;28;20223;-28
2023/12/18 06:38:22;;;;;;;8.50;6.27;;;;;;;;;;5003045;28;20281;-32
2023/12/18 06:40:51;;;;;;;10.10;7.43;;;;;;;;;;5005569;28;20195;-27
2023/12/18 06:43:18;;;;;;;10.60;6.80;;;;;;;;;;5019664;28;20222;-27
2023/12/18 06:45:45;;;;;;;10.27;6.83;;;;;;;;;;5003800;28;20696;-26
2023/12/18 06:48:12;;;;;;;11.93;6.93;;;;;;;;;;5007864;28;20205;-28
2023/12/18 06:50:39;;;;;;;9.73;6.97;;;;;;;;;;5009336;28;20212;-28
2023/12/18 06:53:06;;;;;;;9.10;7.40;;;;;;;;;;5004836;28;20234;-27
2023/12/18 06:55:34;;;;;;;13.40;7.87;;;;;;;;;;5025892;28;20242;-28
2023/12/18 06:58:02;;;;;;;11.87;7.03;;;;;;;;;;5012818;28;20310;-29
2023/12/18 07:00:29;;;;;;;11.43;6.83;;;;;;;;;;5009856;28;20207;-27
2023/12/18 07:02:57;;;;;;;9.93;6.90;;;;;;;;;;5012581;28;20207;-26
2023/12/18 07:05:24;;;;;;;11.47;7.13;;;;;;;;;;5006681;28;20235;-28
2023/12/18 07:07:52;;;;;;;11.87;8.20;;;;;;;;;;5009262;28;20297;-28
2023/12/18 07:10:19;;;;;;;9.57;6.83;;;;;;;;;;5020090;28;20622;-27
2023/12/18 07:12:46;;;;;;;13.83;8.23;;;;;;;;;;5031154;28;20207;-25
2023/12/18 07:15:14;;;;;;;10.43;7.40;;;;;;;;;;5019689;28;20242;-29
2023/12/18 07:17:42;;;;;;;11.67;6.97;;;;;;;;;;5008777;28;20622;-26
2023/12/18 07:20:09;;;;;;;10.13;7.07;;;;;;;;;;5013189;28;20217;-26
2023/12/18 07:22:39;;;;;;;18.33;7.63;;;;;;;;;;5005776;28;20598;-26
2023/12/18 07:25:09;;;;;;;11.27;7.50;;;;;;;;;;5011226;28;20281;-26
2023/12/18 07:27:36;;;;;;;9.67;7.23;;;;;;;;;;5021208;28;20214;-28
2023/12/18 07:30:03;;;;;;;11.13;7.20;;;;;;;;;;5005606;28;20207;-28
2023/12/18 07:32:32;;;;;;;11.67;6.93;;;;;;;;;;5028510;28;20313;-29
2023/12/18 07:35:02;;;;;;;9.90;6.60;;;;;;;;;;5020213;28;20219;-28
2023/12/18 07:37:29;;;;;;;9.17;6.70;;;;;;;;;;5011491;28;20269;-28
2023/12/18 07:39:56;;;;;;;9.73;6.70;;;;;;;;;;5024779;28;20199;-26
2023/12/18 07:42:23;;;;;;;9.80;6.30;;;;;;;;;;5015843;28;20218;-27
2023/12/18 07:44:50;;;;;;;9.97;7.07;;;;;;;;;;5011326;28;20241;-26
2023/12/18 07:47:17;;;;;;;11.93;7.37;;;;;;;;;;5027167;28;20213;-28
2023/12/18 07:49:46;;;;;;;9.20;6.87;;;;;;;;;;5012909;28;20215;-28
2023/12/18 07:52:14;;;;;;;11.23;7.37;;;;;;;;;;5012088;28;20211;-25
2023/12/18 07:54:42;;;;;;;9.13;7.13;;;;;;;;;;5024896;28;20231;-28
2023/12/18 07:57:09;;;;;;;12.10;7.80;;;;;;;;;;5016274;28;20206;-26
2023/12/18 07:59:39;;;;;;;10.77;6.77;;;;;;;;;;5003376;28;20220;-25
2023/12/18 08:02:07;;;;;;;11.33;7.63;;;;;;;;;;5024275;28;20214;-27
2023/12/18 08:04:35;;;;;;;11.00;7.37;;;;;;;;;;5013251;28;20227;-29
2023/12/18 08:07:03;;;;;;;10.90;7.27;;;;;;;;;;4997051;28;20215;-26
2023/12/18 08:09:30;;;;;;;16.87;9.77;;;;;;;;;;5008160;28;20207;-28
2023/12/18 08:11:57;;;;;;;10.43;8.10;;;;;;;;;;5011370;28;20555;-28
2023/12/18 08:14:24;;;;;;;12.37;8.43;;;;;;;;;;5012155;28;20244;-27
2023/12/18 08:16:52;;;;;;;11.83;8.73;;;;;;;;;;5003069;28;20203;-27
2023/12/18 08:19:30;;;;;;;15.17;9.70;;;;;;;;;;5001768;28;20223;-28
2023/12/18 08:21:57;;;;;;;13.37;8.93;;;;;;;;;;4996503;28;20211;-26
2023/12/18 08:24:26;;;;;;;13.13;9.13;;;;;;;;;;5016028;28;20234;-25
2023/12/18 08:26:55;;;;;;;13.63;9.27;;;;;;;;;;5017365;28;20203;-26
2023/12/18 08:29:22;;;;;;;12.63;8.93;;;;;;;;;;5005909;28;20194;-27
2023/12/18 08:31:49;;;;;;;13.60;8.30;;;;;;;;;;5009294;28;20211;-27
2023/12/18 08:34:18;;;;;;;11.03;8.43;;;;;;;;;;5017930;28;20231;-27
2023/12/18 08:36:45;;;;;;;13.03;8.33;;;;;;;;;;5001245;28;20206;-27
2023/12/18 08:39:12;;;;;;;11.47;7.80;;;;;;;;;;5022899;28;20227;-27
2023/12/18 08:41:43;;;;;;;9.17;7.37;;;;;;;;;;5015581;28;20306;-28
2023/12/18 08:44:10;;;;;;;12.77;8.73;;;;;;;;;;5011357;28;20235;-28
2023/12/18 08:46:37;;;;;;;11.20;8.07;;;;;;;;;;5002999;28;20207;-27
2023/12/18 08:49:04;;;;;;;14.27;8.07;;;;;;;;;;5015347;28;20287;-26
2023/12/18 08:51:32;;;;;;;12.07;8.37;;;;;;;;;;5002570;28;20218;-28
2023/12/18 08:54:04;;;;;;;13.60;9.47;;;;;;;;;;5014674;28;20229;-26
2023/12/18 08:56:31;;;;;;;10.90;8.33;;;;;;;;;;5013409;28;20215;-27
2023/12/18 08:58:59;;;;;;;12.90;8.70;;;;;;;;;;5008794;28;20222;-28
2023/12/18 09:01:26;;;;;;;13.17;8.40;;;;;;;;;;5024350;28;20214;-28
2023/12/18 09:03:54;;;;;;;10.10;8.33;;;;;;;;;;5023919;28;20239;-28
2023/12/18 09:06:21;;;;;;;12.20;8.60;;;;;;;;;;5015391;28;20203;-30
2023/12/18 09:08:48;;;;;;;13.37;8.90;;;;;;;;;;5011919;28;20199;-27
2023/12/18 09:11:16;;;;;;;15.17;8.27;;;;;;;;;;5014380;28;20246;-29
2023/12/18 09:13:43;;;;;;;12.20;8.00;;;;;;;;;;5024930;28;20214;-27
2023/12/18 09:16:12;;;;;;;12.23;8.80;;;;;;;;;;5019910;28;20209;-28
2023/12/18 09:18:39;;;;;;;13.77;9.17;;;;;;;;;;5017360;28;20223;-28
2023/12/18 09:21:07;;;;;;;10.63;8.80;;;;;;;;;;5012556;28;20214;-26
2023/12/18 09:23:34;;;;;;;11.50;8.77;;;;;;;;;;5019120;28;20231;-28
2023/12/18 09:26:02;;;;;;;11.10;8.03;;;;;;;;;;5009939;28;20290;-26
2023/12/18 09:28:29;;;;;;;33.93;30.67;;;;;;;;;;5007669;28;20204;-27
2023/12/18 09:30:56;;;;;;;23.37;21.00;;;;;;;;;;5020018;28;20211;-26
2023/12/18 09:33:24;;;;;;;14.07;12.57;;;;;;;;;;5021103;28;20217;-29
2023/12/18 09:35:51;;;;;;;13.83;12.17;;;;;;;;;;5019785;28;20401;-29
2023/12/18 09:38:19;;;;;;;16.23;12.03;;;;;;;;;;5008395;28;20218;-29
2023/12/18 09:40:46;;;;;;;14.17;12.07;;;;;;;;;;5022680;28;20210;-27
2023/12/18 09:43:17;;;;;;;11.33;10.07;;;;;;;;;;5027860;28;20573;-28
2023/12/18 09:45:45;;;;;;;12.77;10.23;;;;;;;;;;5005105;28;20822;-28
2023/12/18 09:48:12;;;;;;;11.60;9.40;;;;;;;;;;5019749;28;20210;-28
2023/12/18 09:50:41;;;;;;;11.67;9.50;;;;;;;;;;5012963;28;20214;-29
2023/12/18 09:53:09;;;;;;;14.17;10.47;;;;;;;;;;5008320;28;20226;-28
2023/12/18 09:55:36;;;;;;;14.83;9.50;;;;;;;;;;5029814;28;20227;-28
2023/12/18 09:58:04;;;;;;;11.77;9.50;;;;;;;;;;5011776;28;20203;-27
2023/12/18 10:00:31;;;;;;;13.80;9.23;;;;;;;;;;5009789;28;20245;-29
2023/12/18 10:02:58;;;;;;;11.23;8.60;;;;;;;;;;5032422;28;20203;-27
2023/12/18 10:05:25;;;;;;;10.73;8.67;;;;;;;;;;5020197;28;20227;-27
2023/12/18 10:07:54;;;;;;;11.97;7.73;;;;;;;;;;5011113;28;20216;-28
2023/12/18 10:10:22;;;;;;;11.23;8.67;;;;;;;;;;5026772;28;20203;-26
2023/12/18 10:12:49;;;;;;;11.77;7.97;;;;;;;;;;5021917;28;20662;-29
2023/12/18 10:15:16;;;;;;;11.87;7.87;;;;;;;;;;5007535;28;20229;-28
2023/12/18 10:17:43;;;;;;;12.17;8.30;;;;;;;;;;5018829;28;20214;-26
2023/12/18 10:20:11;;;;;;;13.90;7.63;;;;;;;;;;5018211;28;20400;-27
2023/12/18 10:22:38;;;;;;;10.13;7.77;;;;;;;;;;4995204;28;20212;-28
2023/12/18 10:25:07;;;;;;;8.93;7.23;;;;;;;;;;5015290;28;20275;-27
2023/12/18 10:27:38;;;;;;;9.73;7.50;;;;;;;;;;5008416;28;20208;-29
2023/12/18 10:30:05;;;;;;;8.80;7.13;;;;;;;;;;5003202;28;20230;-28
2023/12/18 10:32:35;;;;;;;8.90;6.97;;;;;;;;;;5011875;28;20215;-28
2023/12/18 10:35:03;;;;;;;7.70;6.80;;;;;;;;;;5015586;28;20718;-28
2023/12/18 10:37:31;;;;;;;8.70;6.37;;;;;;;;;;5002213;28;20207;-28
2023/12/18 10:40:03;;;;;;;9.83;6.47;;;;;;;;;;5022898;28;20231;-26
2023/12/18 10:42:33;;;;;;;8.53;6.77;;;;;;;;;;5016776;28;20207;-26
2023/12/18 10:45:01;;;;;;;10.50;6.97;;;;;;;;;;5015650;28;20637;-27
2023/12/18 10:47:29;;;;;;;10.57;7.47;;;;;;;;;;5007321;28;20208;-27
2023/12/18 10:49:58;;;;;;;9.50;7.27;;;;;;;;;;5008053;28;20669;-28
2023/12/18 10:52:26;;;;;;;8.07;6.53;;;;;;;;;;4997691;28;20212;-27
2023/12/18 10:54:55;;;;;;;9.43;6.93;;;;;;;;;;5020556;28;20326;-29
2023/12/18 10:57:23;;;;;;;7.27;6.23;;;;;;;;;;5026838;28;20211;-28
2023/12/18 10:59:51;;;;;;;7.73;6.17;;;;;;;;;;5006581;28;20226;-28
2023/12/18 11:02:19;;;;;;;7.33;6.37;;;;;;;;;;5017555;28;20658;-29
2023/12/18 11:04:46;;;;;;;8.40;6.50;;;;;;;;;;5023208;28;20239;-28
2023/12/18 11:07:14;;;;;;;7.80;5.97;;;;;;;;;;5000579;28;20206;-26
2023/12/18 11:09:41;;;;;;;6.90;5.67;;;;;;;;;;5017018;28;20210;-32
2023/12/18 11:12:08;;;;;;;8.60;6.37;;;;;;;;;;5015450;28;20707;-28
2023/12/18 11:14:41;;;;;;;8.77;6.03;;;;;;;;;;5031561;28;20226;-25
2023/12/18 11:17:14;;;;;;;8.47;6.07;;;;;;;;;;5017844;28;20218;-27
2023/12/18 11:19:45;;;;;;;8.77;5.97;;;;;;;;;;5020019;28;20245;-27
2023/12/18 11:22:16;;;;;;;7.73;5.90;;;;;;;;;;5006139;28;20205;-28
2023/12/18 11:24:46;;;;;;;6.77;5.83;;;;;;;;;;5018526;28;20222;-28
2023/12/18 11:27:13;;;;;;;10.97;6.23;;;;;;;;;;5013952;28;20222;-29
2023/12/18 11:29:43;;;;;;;8.07;6.43;;;;;;;;;;5021928;28;20259;-28
2023/12/18 11:32:13;;;;;;;9.00;6.57;;;;;;;;;;4995431;28;20244;-26
2023/12/18 11:34:41;;;;;;;8.63;6.50;;;;;;;;;;5016384;28;20234;-27
2023/12/18 11:37:08;;;;;;;9.07;6.27;;;;;;;;;;5004314;28;20211;-29
2023/12/18 11:39:39;;;;;;;9.70;6.10;;;;;;;;;;4999579;28;20224;-27
2023/12/18 11:42:06;;;;;;;9.70;6.23;;;;;;;;;;5004407;28;20214;-28
2023/12/18 11:44:36;;;;;;;8.63;6.30;;;;;;;;;;5002019;28;20325;-27
2023/12/18 11:47:07;;;;;;;8.63;6.13;;;;;;;;;;4995672;28;20211;-28
2023/12/18 11:49:37;;;;;;;9.70;6.60;;;;;;;;;;5001021;28;20566;-26
2023/12/18 11:52:17;;;;;;;8.43;6.23;;;;;;;;;;4992210;28;20546;-25
2023/12/18 11:54:44;;;;;;;7.93;6.60;;;;;;;;;;5010637;28;20852;-27
2023/12/18 11:57:16;;;;;;;10.40;6.80;;;;;;;;;;5011570;28;20215;-27
2023/12/18 11:59:44;;;;;;;9.17;6.97;;;;;;;;;;5015501;28;20219;-27
2023/12/18 12:02:12;;;;;;;8.73;6.40;;;;;;;;;;5003019;28;20215;-27
2023/12/18 12:04:41;;;;;;;8.03;6.33;;;;;;;;;;5015651;28;20257;-28
2023/12/18 12:07:08;;;;;;;10.07;6.67;;;;;;;;;;5006918;28;20222;-28
2023/12/18 12:09:36;;;;;;;8.50;6.73;;;;;;;;;;5018278;28;20202;-26
2023/12/18 12:12:04;;;;;;;7.17;6.17;;;;;;;;;;5022970;28;20306;-29
2023/12/18 12:14:31;;;;;;;8.10;6.30;;;;;;;;;;5016691;28;20281;-28
2023/12/18 12:17:03;;;;;;;9.00;6.30;;;;;;;;;;5020776;28;20214;-27
2023/12/18 12:19:33;;;;;;;9.70;6.33;;;;;;;;;;5017731;28;20212;-28
2023/12/18 12:22:01;;;;;;;7.20;5.77;;;;;;;;;;4996104;28;20208;-26
2023/12/18 12:24:29;;;;;;;6.13;5.37;;;;;;;;;;5005698;28;20227;-28
2023/12/18 12:26:57;;;;;;;7.37;4.93;;;;;;;;;;5012112;28;20211;-26
2023/12/18 12:29:26;;;;;;;5.53;4.90;;;;;;;;;;5014454;28;20214;-27
2023/12/18 12:31:53;;;;;;;5.93;4.97;;;;;;;;;;5003000;28;20218;-28
2023/12/18 12:34:20;;;;;;;5.17;4.23;;;;;;;;;;5009851;28;20226;-27
2023/12/18 12:36:48;;;;;;;5.80;5.20;;;;;;;;;;5004906;28;20213;-28
2023/12/18 12:39:16;;;;;;;5.97;5.00;;;;;;;;;;5012126;28;20211;-27
2023/12/18 12:41:43;;;;;;;6.90;4.73;;;;;;;;;;5009796;28;20199;-27
2023/12/18 12:44:10;;;;;;;6.23;4.57;;;;;;;;;;5026641;28;20898;-28
2023/12/18 12:46:37;;;;;;;6.23;5.33;;;;;;;;;;5003175;28;20219;-26
2023/12/18 12:49:11;;;;;;;7.43;5.93;;;;;;;;;;5012382;28;20266;-29
2023/12/18 12:51:39;;;;;;;8.30;5.33;;;;;;;;;;4999941;28;20212;-28
2023/12/18 12:54:06;;;;;;;7.60;5.93;;;;;;;;;;5002816;28;20231;-27
2023/12/18 12:56:35;;;;;;;10.17;7.60;;;;;;;;;;5018415;28;20211;-26
2023/12/18 12:59:03;;;;;;;9.17;6.43;;;;;;;;;;5012869;28;20565;-28
2023/12/18 13:01:30;;;;;;;9.93;7.07;;;;;;;;;;5001276;28;20276;-27
2023/12/18 13:03:57;;;;;;;8.87;6.13;;;;;;;;;;5007502;28;20227;-28
2023/12/18 13:06:25;;;;;;;6.40;5.23;;;;;;;;;;4996636;28;20215;-26
2023/12/18 13:08:52;;;;;;;7.93;5.47;;;;;;;;;;5007738;28;20210;-27
2023/12/18 13:11:20;;;;;;;6.97;5.30;;;;;;;;;;5022917;28;20196;-28
2023/12/18 13:13:49;;;;;;;6.93;5.50;;;;;;;;;;5022704;28;20210;-29
2023/12/18 13:16:16;;;;;;;6.83;5.23;;;;;;;;;;5006117;28;20203;-30
2023/12/18 13:18:43;;;;;;;6.83;5.80;;;;;;;;;;4998942;28;20216;-27
2023/12/18 13:21:10;;;;;;;6.47;5.40;;;;;;;;;;5003436;28;20226;-29
2023/12/18 13:23:38;;;;;;;7.90;5.57;;;;;;;;;;5022025;28;20233;-27
2023/12/18 13:26:05;;;;;;;6.63;5.40;;;;;;;;;;5024979;28;20211;-28
2023/12/18 13:28:32;;;;;;;6.17;5.17;;;;;;;;;;5007028;28;20222;-29
2023/12/18 13:31:00;;;;;;;9.83;5.17;;;;;;;;;;5007398;28;20204;-26
2023/12/18 13:33:28;;;;;;;8.33;5.27;;;;;;;;;;5006389;28;20223;-28
2023/12/18 13:35:56;;;;;;;6.30;5.20;;;;;;;;;;5004967;28;20238;-29
2023/12/18 13:38:23;;;;;;;6.00;5.40;;;;;;;;;;5005793;28;20203;-27
2023/12/18 13:40:50;;;;;;;6.60;5.67;;;;;;;;;;5007640;28;20245;-28
2023/12/18 13:43:17;;;;;;;5.97;5.47;;;;;;;;;;5005077;28;20228;-28
2023/12/18 13:45:44;;;;;;;6.60;5.17;;;;;;;;;;5013041;28;20238;-26
2023/12/18 13:48:12;;;;;;;7.13;5.47;;;;;;;;;;5007967;28;20212;-26
2023/12/18 13:50:40;;;;;;;7.13;5.63;;;;;;;;;;4997752;28;20211;-27
2023/12/18 13:53:07;;;;;;;8.63;6.20;;;;;;;;;;5012451;28;20440;-28
2023/12/18 13:55:34;;;;;;;7.33;5.60;;;;;;;;;;5011620;28;20233;-28
2023/12/18 13:58:01;;;;;;;7.47;5.73;;;;;;;;;;5019480;28;20214;-28
2023/12/18 14:00:28;;;;;;;6.30;5.27;;;;;;;;;;5012440;28;20238;-27
2023/12/18 14:02:55;;;;;;;5.90;5.17;;;;;;;;;;5014098;28;20551;-30
2023/12/18 14:05:25;;;;;;;6.87;5.10;;;;;;;;;;5005608;28;20601;-28
2023/12/18 14:07:52;;;;;;;6.27;5.10;;;;;;;;;;5002517;28;20207;-29
2023/12/18 14:10:19;;;;;;;5.97;5.10;;;;;;;;;;5026311;28;20214;-30
2023/12/18 14:12:46;;;;;;;6.63;4.97;;;;;;;;;;5011253;28;20199;-28
2023/12/18 14:15:14;;;;;;;8.27;5.20;;;;;;;;;;4998399;28;20223;-26
2023/12/18 14:17:41;;;;;;;8.57;5.00;;;;;;;;;;5011296;28;20217;-29
2023/12/18 14:20:09;;;;;;;6.37;5.33;;;;;;;;;;5007530;28;20720;-28
2023/12/18 14:22:38;;;;;;;6.27;5.10;;;;;;;;;;5006031;28;20211;-29
2023/12/18 14:25:06;;;;;;;9.03;5.27;;;;;;;;;;5009944;28;20427;-27
2023/12/18 14:27:34;;;;;;;5.03;4.53;;;;;;;;;;5008481;28;20199;-27
2023/12/18 14:30:01;;;;;;;4.93;4.30;;;;;;;;;;5007135;28;20210;-28
2023/12/18 14:32:28;;;;;;;5.07;4.57;;;;;;;;;;5002292;28;20226;-30
2023/12/18 14:34:55;;;;;;;7.93;4.60;;;;;;;;;;5020687;28;20222;-29